sensor_id;sensor_type;location;lat;lon;timestamp;temperature;humidity
22940;DHT22;11636;52.086;5.090;2024-03-02T00:01:07;8.40;99.90
22940;DHT22;11636;52.086;5.090;2024-03-02T00:03:42;8.40;99.90
22940;DHT22;11636;52.086;5.090;2024-03-02T00:06:10;8.40;99.90
22940;DHT22;11636;52.086;5.090;2024-03-02T00:08:43;8.30;99.90
22940;DHT22;11636;52.086;5.090;2024-03-02T00:11:16;8.30;99.90
22940;DHT22;11636;52.086;5.090;2024-03-02T00:13:45;8.30;99.90
22940;DHT22;11636;52.086;5.090;2024-03-02T00:16:12;8.30;99.90
22940;DHT22;11636;52.086;5.090;2024-03-02T00:18:45;8.20;99.90
22940;DHT22;11636;52.086;5.090;2024-03-02T00:21:12;8.10;99.90
22940;DHT22;11636;52.086;5.090;2024-03-02T00:23:48;7.90;99.90
22940;DHT22;11636;52.086;5.090;2024-03-02T00:26:18;7.80;99.90
22940;DHT22;11636;52.086;5.090;2024-03-02T00:28:45;7.70;99.90
22940;DHT22;11636;52.086;5.090;2024-03-02T00:31:20;7.60;99.90
22940;DHT22;11636;52.086;5.090;2024-03-02T00:33:53;7.60;99.90
22940;DHT22;11636;52.086;5.090;2024-03-02T00:36:27;7.50;99.90
22940;DHT22;11636;52.086;5.090;2024-03-02T00:39:00;7.50;99.90
22940;DHT22;11636;52.086;5.090;2024-03-02T00:41:34;7.40;99.90
22940;DHT22;11636;52.086;5.090;2024-03-02T00:44:06;7.40;99.90
22940;DHT22;11636;52.086;5.090;2024-03-02T00:46:42;7.30;99.90
22940;DHT22;11636;52.086;5.090;2024-03-02T00:49:24;7.30;99.90
22940;DHT22;11636;52.086;5.090;2024-03-02T00:51:52;7.30;99.90
22940;DHT22;11636;52.086;5.090;2024-03-02T00:54:26;7.30;99.90
22940;DHT22;11636;52.086;5.090;2024-03-02T00:56:55;7.20;99.90
22940;DHT22;11636;52.086;5.090;2024-03-02T00:59:28;7.20;99.90
22940;DHT22;11636;52.086;5.090;2024-03-02T01:02:02;7.20;99.90
22940;DHT22;11636;52.086;5.090;2024-03-02T01:04:29;7.10;99.90
22940;DHT22;11636;52.086;5.090;2024-03-02T01:06:56;7.10;99.90
22940;DHT22;11636;52.086;5.090;2024-03-02T01:09:31;7.10;99.90
22940;DHT22;11636;52.086;5.090;2024-03-02T01:12:05;7.10;99.90
22940;DHT22;11636;52.086;5.090;2024-03-02T01:14:32;7.10;99.90
22940;DHT22;11636;52.086;5.090;2024-03-02T01:17:05;7.10;99.90
22940;DHT22;11636;52.086;5.090;2024-03-02T01:19:32;7.10;99.90
22940;DHT22;11636;52.086;5.090;2024-03-02T01:21:59;7.10;99.90
22940;DHT22;11636;52.086;5.090;2024-03-02T01:24:32;7.10;99.90
22940;DHT22;11636;52.086;5.090;2024-03-02T01:26:59;7.10;99.90
22940;DHT22;11636;52.086;5.090;2024-03-02T01:29:32;7.10;99.90
22940;DHT22;11636;52.086;5.090;2024-03-02T01:32:06;7.10;99.90
22940;DHT22;11636;52.086;5.090;2024-03-02T01:34:33;7.10;99.90
22940;DHT22;11636;52.086;5.090;2024-03-02T01:36:59;7.10;99.90
22940;DHT22;11636;52.086;5.090;2024-03-02T01:39:32;7.10;99.90
22940;DHT22;11636;52.086;5.090;2024-03-02T01:42:00;7.00;99.90
22940;DHT22;11636;52.086;5.090;2024-03-02T01:44:32;7.00;99.90
22940;DHT22;11636;52.086;5.090;2024-03-02T01:46:59;7.10;99.90
22940;DHT22;11636;52.086;5.090;2024-03-02T01:49:32;7.10;99.90
22940;DHT22;11636;52.086;5.090;2024-03-02T01:52:07;7.00;99.90
22940;DHT22;11636;52.086;5.090;2024-03-02T01:54:34;7.00;99.90
22940;DHT22;11636;52.086;5.090;2024-03-02T01:57:01;7.00;99.90
22940;DHT22;11636;52.086;5.090;2024-03-02T01:59:34;7.00;99.90
22940;DHT22;11636;52.086;5.090;2024-03-02T02:02:08;7.00;99.90
22940;DHT22;11636;52.086;5.090;2024-03-02T02:04:35;7.00;99.90
22940;DHT22;11636;52.086;5.090;2024-03-02T02:07:01;7.00;99.90
22940;DHT22;11636;52.086;5.090;2024-03-02T02:09:35;7.00;99.90
22940;DHT22;11636;52.086;5.090;2024-03-02T02:12:02;7.00;99.90
22940;DHT22;11636;52.086;5.090;2024-03-02T02:14:31;6.90;99.90
22940;DHT22;11636;52.086;5.090;2024-03-02T02:17:05;6.90;99.90
22940;DHT22;11636;52.086;5.090;2024-03-02T02:19:37;6.90;99.90
22940;DHT22;11636;52.086;5.090;2024-03-02T02:22:12;6.90;99.90
22940;DHT22;11636;52.086;5.090;2024-03-02T02:24:40;6.90;99.90
22940;DHT22;11636;52.086;5.090;2024-03-02T02:27:15;6.80;99.90
22940;DHT22;11636;52.086;5.090;2024-03-02T02:29:42;6.90;99.90
22940;DHT22;11636;52.086;5.090;2024-03-02T02:32:08;6.90;99.90
22940;DHT22;11636;52.086;5.090;2024-03-02T02:34:52;6.80;99.90
22940;DHT22;11636;52.086;5.090;2024-03-02T02:37:25;6.80;99.90
22940;DHT22;11636;52.086;5.090;2024-03-02T02:39:52;6.80;99.90
22940;DHT22;11636;52.086;5.090;2024-03-02T02:42:19;6.70;99.90
22940;DHT22;11636;52.086;5.090;2024-03-02T02:44:53;6.70;99.90
22940;DHT22;11636;52.086;5.090;2024-03-02T02:47:19;6.70;99.90
22940;DHT22;11636;52.086;5.090;2024-03-02T02:49:53;6.70;99.90
22940;DHT22;11636;52.086;5.090;2024-03-02T02:52:19;6.70;99.90
22940;DHT22;11636;52.086;5.090;2024-03-02T02:54:53;6.70;99.90
22940;DHT22;11636;52.086;5.090;2024-03-02T02:57:27;6.70;99.90
22940;DHT22;11636;52.086;5.090;2024-03-02T02:59:54;6.70;99.90
22940;DHT22;11636;52.086;5.090;2024-03-02T03:02:28;6.70;99.90
22940;DHT22;11636;52.086;5.090;2024-03-02T03:04:55;6.70;99.90
22940;DHT22;11636;52.086;5.090;2024-03-02T03:07:30;6.70;99.90
22940;DHT22;11636;52.086;5.090;2024-03-02T03:09:56;6.70;99.90
22940;DHT22;11636;52.086;5.090;2024-03-02T03:12:33;6.70;99.90
22940;DHT22;11636;52.086;5.090;2024-03-02T03:15:00;6.70;99.90
22940;DHT22;11636;52.086;5.090;2024-03-02T03:17:27;6.60;99.90
22940;DHT22;11636;52.086;5.090;2024-03-02T03:20:01;6.60;99.90
22940;DHT22;11636;52.086;5.090;2024-03-02T03:22:30;6.50;99.90
22940;DHT22;11636;52.086;5.090;2024-03-02T03:25:08;6.50;99.90
22940;DHT22;11636;52.086;5.090;2024-03-02T03:27:35;6.40;99.90
22940;DHT22;11636;52.086;5.090;2024-03-02T03:30:09;6.40;99.90
22940;DHT22;11636;52.086;5.090;2024-03-02T03:32:43;6.40;99.90
22940;DHT22;11636;52.086;5.090;2024-03-02T03:35:09;6.50;99.90
22940;DHT22;11636;52.086;5.090;2024-03-02T03:37:36;6.50;99.90
22940;DHT22;11636;52.086;5.090;2024-03-02T03:40:10;6.60;99.90
22940;DHT22;11636;52.086;5.090;2024-03-02T03:42:38;6.70;99.90
22940;DHT22;11636;52.086;5.090;2024-03-02T03:45:12;6.70;99.90
22940;DHT22;11636;52.086;5.090;2024-03-02T03:47:45;6.70;99.90
22940;DHT22;11636;52.086;5.090;2024-03-02T03:50:12;6.70;99.90
22940;DHT22;11636;52.086;5.090;2024-03-02T03:52:45;6.80;99.90
22940;DHT22;11636;52.086;5.090;2024-03-02T03:55:11;6.80;99.90
22940;DHT22;11636;52.086;5.090;2024-03-02T03:57:45;6.80;99.90
22940;DHT22;11636;52.086;5.090;2024-03-02T04:00:12;6.80;99.90
22940;DHT22;11636;52.086;5.090;2024-03-02T04:02:39;6.90;99.90
22940;DHT22;11636;52.086;5.090;2024-03-02T04:05:13;6.90;99.90
22940;DHT22;11636;52.086;5.090;2024-03-02T04:07:39;6.90;99.90
22940;DHT22;11636;52.086;5.090;2024-03-02T04:10:13;6.90;99.90
22940;DHT22;11636;52.086;5.090;2024-03-02T04:12:39;6.90;99.90
22940;DHT22;11636;52.086;5.090;2024-03-02T04:15:20;6.90;99.90
22940;DHT22;11636;52.086;5.090;2024-03-02T04:17:53;6.90;99.90
22940;DHT22;11636;52.086;5.090;2024-03-02T04:20:26;6.80;99.90
22940;DHT22;11636;52.086;5.090;2024-03-02T04:22:52;6.80;99.90
22940;DHT22;11636;52.086;5.090;2024-03-02T04:25:26;6.80;99.90
22940;DHT22;11636;52.086;5.090;2024-03-02T04:27:52;6.70;99.90
22940;DHT22;11636;52.086;5.090;2024-03-02T04:30:26;6.80;99.90
22940;DHT22;11636;52.086;5.090;2024-03-02T04:32:53;6.70;99.90
22940;DHT22;11636;52.086;5.090;2024-03-02T04:35:27;6.60;99.90
22940;DHT22;11636;52.086;5.090;2024-03-02T04:37:54;6.50;99.90
22940;DHT22;11636;52.086;5.090;2024-03-02T04:40:21;6.40;99.90
22940;DHT22;11636;52.086;5.090;2024-03-02T04:42:54;6.30;99.90
22940;DHT22;11636;52.086;5.090;2024-03-02T04:45:21;6.20;99.90
22940;DHT22;11636;52.086;5.090;2024-03-02T04:47:54;6.20;99.90
22940;DHT22;11636;52.086;5.090;2024-03-02T04:50:21;6.10;99.90
22940;DHT22;11636;52.086;5.090;2024-03-02T04:52:47;6.10;99.90
22940;DHT22;11636;52.086;5.090;2024-03-02T04:55:21;6.00;99.90
22940;DHT22;11636;52.086;5.090;2024-03-02T04:58:00;5.90;99.90
22940;DHT22;11636;52.086;5.090;2024-03-02T05:00:27;5.90;99.90
22940;DHT22;11636;52.086;5.090;2024-03-02T05:02:53;5.90;99.90
22940;DHT22;11636;52.086;5.090;2024-03-02T05:05:27;5.80;99.90
22940;DHT22;11636;52.086;5.090;2024-03-02T05:07:54;5.80;99.90
22940;DHT22;11636;52.086;5.090;2024-03-02T05:10:27;5.80;99.90
22940;DHT22;11636;52.086;5.090;2024-03-02T05:12:54;5.80;99.90
22940;DHT22;11636;52.086;5.090;2024-03-02T05:15:32;5.70;99.90
22940;DHT22;11636;52.086;5.090;2024-03-02T05:18:05;5.70;99.90
22940;DHT22;11636;52.086;5.090;2024-03-02T05:20:38;5.70;99.90
22940;DHT22;11636;52.086;5.090;2024-03-02T05:23:05;5.70;99.90
22940;DHT22;11636;52.086;5.090;2024-03-02T05:25:39;5.60;99.90
22940;DHT22;11636;52.086;5.090;2024-03-02T05:28:12;5.60;99.90
22940;DHT22;11636;52.086;5.090;2024-03-02T05:30:39;5.60;99.90
22940;DHT22;11636;52.086;5.090;2024-03-02T05:33:06;5.50;99.90
22940;DHT22;11636;52.086;5.090;2024-03-02T05:35:39;5.50;99.90
22940;DHT22;11636;52.086;5.090;2024-03-02T05:38:06;5.50;99.90
22940;DHT22;11636;52.086;5.090;2024-03-02T05:40:40;5.60;99.90
22940;DHT22;11636;52.086;5.090;2024-03-02T05:43:13;5.50;99.90
22940;DHT22;11636;52.086;5.090;2024-03-02T05:45:46;5.60;99.90
22940;DHT22;11636;52.086;5.090;2024-03-02T05:48:13;5.60;99.90
22940;DHT22;11636;52.086;5.090;2024-03-02T05:50:39;5.60;99.90
22940;DHT22;11636;52.086;5.090;2024-03-02T05:53:13;5.70;99.90
22940;DHT22;11636;52.086;5.090;2024-03-02T05:55:40;5.70;99.90
22940;DHT22;11636;52.086;5.090;2024-03-02T05:58:13;5.80;99.90
22940;DHT22;11636;52.086;5.090;2024-03-02T06:01:18;5.90;99.90
22940;DHT22;11636;52.086;5.090;2024-03-02T06:03:52;6.00;99.90
22940;DHT22;11636;52.086;5.090;2024-03-02T06:06:19;6.10;99.90
22940;DHT22;11636;52.086;5.090;2024-03-02T06:08:46;6.10;99.90
22940;DHT22;11636;52.086;5.090;2024-03-02T06:11:19;6.20;99.90
22940;DHT22;11636;52.086;5.090;2024-03-02T06:13:46;6.30;99.90
22940;DHT22;11636;52.086;5.090;2024-03-02T06:16:20;6.30;99.90
22940;DHT22;11636;52.086;5.090;2024-03-02T06:18:47;6.30;99.90
22940;DHT22;11636;52.086;5.090;2024-03-02T06:21:20;6.30;99.90
22940;DHT22;11636;52.086;5.090;2024-03-02T06:23:47;6.30;99.90
22940;DHT22;11636;52.086;5.090;2024-03-02T06:26:20;6.20;99.90
22940;DHT22;11636;52.086;5.090;2024-03-02T06:28:58;6.00;99.90
22940;DHT22;11636;52.086;5.090;2024-03-02T06:31:31;6.00;99.90
22940;DHT22;11636;52.086;5.090;2024-03-02T06:33:58;5.90;99.90
22940;DHT22;11636;52.086;5.090;2024-03-02T06:36:31;6.00;99.90
22940;DHT22;11636;52.086;5.090;2024-03-02T06:38:58;6.10;99.90
22940;DHT22;11636;52.086;5.090;2024-03-02T06:41:31;6.10;99.90
22940;DHT22;11636;52.086;5.090;2024-03-02T06:43:58;6.10;99.90
22940;DHT22;11636;52.086;5.090;2024-03-02T06:46:34;6.00;99.90
22940;DHT22;11636;52.086;5.090;2024-03-02T06:49:01;5.90;99.90
22940;DHT22;11636;52.086;5.090;2024-03-02T06:51:29;5.90;99.90
22940;DHT22;11636;52.086;5.090;2024-03-02T06:54:02;6.00;99.90
22940;DHT22;11636;52.086;5.090;2024-03-02T06:56:29;6.00;99.90
22940;DHT22;11636;52.086;5.090;2024-03-02T06:59:03;6.00;99.90
22940;DHT22;11636;52.086;5.090;2024-03-02T07:01:30;6.10;99.90
22940;DHT22;11636;52.086;5.090;2024-03-02T07:04:03;6.10;99.90
22940;DHT22;11636;52.086;5.090;2024-03-02T07:06:33;6.10;99.90
22940;DHT22;11636;52.086;5.090;2024-03-02T07:09:06;6.20;99.90
22940;DHT22;11636;52.086;5.090;2024-03-02T07:11:37;6.20;99.90
22940;DHT22;11636;52.086;5.090;2024-03-02T07:14:04;6.20;99.90
22940;DHT22;11636;52.086;5.090;2024-03-02T07:16:37;6.20;99.90
22940;DHT22;11636;52.086;5.090;2024-03-02T07:19:07;6.20;99.90
22940;DHT22;11636;52.086;5.090;2024-03-02T07:21:40;6.20;99.90
22940;DHT22;11636;52.086;5.090;2024-03-02T07:24:15;6.20;99.90
22940;DHT22;11636;52.086;5.090;2024-03-02T07:26:49;6.20;99.90
22940;DHT22;11636;52.086;5.090;2024-03-02T07:29:22;6.20;99.90
22940;DHT22;11636;52.086;5.090;2024-03-02T07:31:55;6.30;99.90
22940;DHT22;11636;52.086;5.090;2024-03-02T07:34:22;6.30;99.90
22940;DHT22;11636;52.086;5.090;2024-03-02T07:36:55;6.30;99.90
22940;DHT22;11636;52.086;5.090;2024-03-02T07:39:22;6.30;99.90
22940;DHT22;11636;52.086;5.090;2024-03-02T07:41:56;6.30;99.90
22940;DHT22;11636;52.086;5.090;2024-03-02T07:44:23;6.30;99.90
22940;DHT22;11636;52.086;5.090;2024-03-02T07:46:57;6.20;99.90
22940;DHT22;11636;52.086;5.090;2024-03-02T07:49:30;6.20;99.90
22940;DHT22;11636;52.086;5.090;2024-03-02T07:51:57;6.20;99.90
22940;DHT22;11636;52.086;5.090;2024-03-02T07:54:30;6.20;99.90
22940;DHT22;11636;52.086;5.090;2024-03-02T07:56:57;6.20;99.90
22940;DHT22;11636;52.086;5.090;2024-03-02T07:59:24;6.30;99.90
22940;DHT22;11636;52.086;5.090;2024-03-02T08:01:57;6.40;99.90
22940;DHT22;11636;52.086;5.090;2024-03-02T08:04:24;6.40;99.90
22940;DHT22;11636;52.086;5.090;2024-03-02T08:06:58;6.40;99.90
22940;DHT22;11636;52.086;5.090;2024-03-02T08:09:31;6.50;99.90
22940;DHT22;11636;52.086;5.090;2024-03-02T08:12:04;6.50;99.90
22940;DHT22;11636;52.086;5.090;2024-03-02T08:14:31;6.60;99.90
22940;DHT22;11636;52.086;5.090;2024-03-02T08:16:58;6.60;99.90
22940;DHT22;11636;52.086;5.090;2024-03-02T08:19:31;6.60;99.90
22940;DHT22;11636;52.086;5.090;2024-03-02T08:21:58;6.70;99.90
22940;DHT22;11636;52.086;5.090;2024-03-02T08:24:26;6.70;99.90
22940;DHT22;11636;52.086;5.090;2024-03-02T08:27:00;6.70;99.90
22940;DHT22;11636;52.086;5.090;2024-03-02T08:29:27;6.70;99.90
22940;DHT22;11636;52.086;5.090;2024-03-02T08:32:01;6.70;99.90
22940;DHT22;11636;52.086;5.090;2024-03-02T08:34:27;6.80;99.90
22940;DHT22;11636;52.086;5.090;2024-03-02T08:36:54;6.80;99.90
22940;DHT22;11636;52.086;5.090;2024-03-02T08:39:28;6.80;99.90
22940;DHT22;11636;52.086;5.090;2024-03-02T08:41:54;6.80;99.90
22940;DHT22;11636;52.086;5.090;2024-03-02T08:44:21;6.90;99.90
22940;DHT22;11636;52.086;5.090;2024-03-02T08:46:55;6.90;99.90
22940;DHT22;11636;52.086;5.090;2024-03-02T08:49:29;6.90;99.90
22940;DHT22;11636;52.086;5.090;2024-03-02T08:51:56;6.90;99.90
22940;DHT22;11636;52.086;5.090;2024-03-02T08:54:29;7.00;99.90
22940;DHT22;11636;52.086;5.090;2024-03-02T08:57:03;7.00;99.90
22940;DHT22;11636;52.086;5.090;2024-03-02T08:59:37;7.00;99.90
22940;DHT22;11636;52.086;5.090;2024-03-02T09:02:10;7.10;99.90
22940;DHT22;11636;52.086;5.090;2024-03-02T09:04:37;7.20;99.90
22940;DHT22;11636;52.086;5.090;2024-03-02T09:07:11;7.30;99.90
22940;DHT22;11636;52.086;5.090;2024-03-02T09:09:44;7.40;99.90
22940;DHT22;11636;52.086;5.090;2024-03-02T09:12:11;7.50;99.90
22940;DHT22;11636;52.086;5.090;2024-03-02T09:14:38;7.70;99.90
22940;DHT22;11636;52.086;5.090;2024-03-02T09:17:11;7.70;99.90
22940;DHT22;11636;52.086;5.090;2024-03-02T09:19:39;7.90;99.90
22940;DHT22;11636;52.086;5.090;2024-03-02T09:22:12;7.90;99.90
22940;DHT22;11636;52.086;5.090;2024-03-02T09:24:39;8.00;99.90
22940;DHT22;11636;52.086;5.090;2024-03-02T09:27:13;8.10;99.90
22940;DHT22;11636;52.086;5.090;2024-03-02T09:29:47;8.20;99.90
22940;DHT22;11636;52.086;5.090;2024-03-02T09:32:14;8.30;99.90
22940;DHT22;11636;52.086;5.090;2024-03-02T09:34:47;8.30;99.90
22940;DHT22;11636;52.086;5.090;2024-03-02T09:37:15;8.40;99.90
22940;DHT22;11636;52.086;5.090;2024-03-02T09:39:48;8.40;99.90
22940;DHT22;11636;52.086;5.090;2024-03-02T09:42:21;8.50;99.90
22940;DHT22;11636;52.086;5.090;2024-03-02T09:44:50;8.60;99.90
22940;DHT22;11636;52.086;5.090;2024-03-02T09:47:24;8.70;99.90
22940;DHT22;11636;52.086;5.090;2024-03-02T09:49:51;8.70;99.90
22940;DHT22;11636;52.086;5.090;2024-03-02T09:52:24;8.80;99.90
22940;DHT22;11636;52.086;5.090;2024-03-02T09:54:59;8.90;99.90
22940;DHT22;11636;52.086;5.090;2024-03-02T09:57:26;8.90;99.90
22940;DHT22;11636;52.086;5.090;2024-03-02T09:59:52;9.00;99.90
22940;DHT22;11636;52.086;5.090;2024-03-02T10:02:26;9.10;99.90
22940;DHT22;11636;52.086;5.090;2024-03-02T10:04:53;9.10;99.90
22940;DHT22;11636;52.086;5.090;2024-03-02T10:07:26;9.20;99.90
22940;DHT22;11636;52.086;5.090;2024-03-02T10:10:13;9.20;99.90
22940;DHT22;11636;52.086;5.090;2024-03-02T10:12:46;9.30;99.90
22940;DHT22;11636;52.086;5.090;2024-03-02T10:15:24;9.30;99.90
22940;DHT22;11636;52.086;5.090;2024-03-02T10:17:57;9.40;99.90
22940;DHT22;11636;52.086;5.090;2024-03-02T10:20:27;9.40;99.90
22940;DHT22;11636;52.086;5.090;2024-03-02T10:23:15;9.40;99.90
22940;DHT22;11636;52.086;5.090;2024-03-02T10:25:45;9.50;99.90
22940;DHT22;11636;52.086;5.090;2024-03-02T10:28:24;9.60;99.90
22940;DHT22;11636;52.086;5.090;2024-03-02T10:30:51;9.70;99.90
22940;DHT22;11636;52.086;5.090;2024-03-02T10:33:25;9.80;99.90
22940;DHT22;11636;52.086;5.090;2024-03-02T10:35:52;9.80;99.90
22940;DHT22;11636;52.086;5.090;2024-03-02T10:38:26;9.90;99.90
22940;DHT22;11636;52.086;5.090;2024-03-02T10:40:53;10.00;99.90
22940;DHT22;11636;52.086;5.090;2024-03-02T10:43:22;10.10;99.90
22940;DHT22;11636;52.086;5.090;2024-03-02T10:45:56;10.20;99.90
22940;DHT22;11636;52.086;5.090;2024-03-02T10:48:25;10.30;99.90
22940;DHT22;11636;52.086;5.090;2024-03-02T10:50:59;10.30;99.90
22940;DHT22;11636;52.086;5.090;2024-03-02T10:53:34;10.40;99.90
22940;DHT22;11636;52.086;5.090;2024-03-02T10:56:02;10.40;99.90
22940;DHT22;11636;52.086;5.090;2024-03-02T10:58:32;10.50;99.90
22940;DHT22;11636;52.086;5.090;2024-03-02T11:01:10;10.50;99.90
22940;DHT22;11636;52.086;5.090;2024-03-02T11:03:38;10.50;99.90
22940;DHT22;11636;52.086;5.090;2024-03-02T11:06:13;10.60;99.90
22940;DHT22;11636;52.086;5.090;2024-03-02T11:08:48;10.70;99.90
22940;DHT22;11636;52.086;5.090;2024-03-02T11:11:22;10.90;99.90
22940;DHT22;11636;52.086;5.090;2024-03-02T11:14:01;11.10;99.90
22940;DHT22;11636;52.086;5.090;2024-03-02T11:16:36;11.30;99.90
22940;DHT22;11636;52.086;5.090;2024-03-02T11:19:14;11.30;99.90
22940;DHT22;11636;52.086;5.090;2024-03-02T11:21:43;11.40;99.90
22940;DHT22;11636;52.086;5.090;2024-03-02T11:26:58;11.70;99.90
22940;DHT22;11636;52.086;5.090;2024-03-02T11:32:03;11.80;99.90
22940;DHT22;11636;52.086;5.090;2024-03-02T11:34:36;11.80;99.90
22940;DHT22;11636;52.086;5.090;2024-03-02T11:37:13;11.90;99.90
22940;DHT22;11636;52.086;5.090;2024-03-02T11:39:48;12.10;99.90
22940;DHT22;11636;52.086;5.090;2024-03-02T11:42:21;12.20;99.90
22940;DHT22;11636;52.086;5.090;2024-03-02T11:44:56;12.30;99.90
22940;DHT22;11636;52.086;5.090;2024-03-02T11:47:23;12.30;99.90
22940;DHT22;11636;52.086;5.090;2024-03-02T11:49:59;12.40;99.90
22940;DHT22;11636;52.086;5.090;2024-03-02T11:52:26;12.50;99.90
22940;DHT22;11636;52.086;5.090;2024-03-02T11:55:01;12.50;99.90
22940;DHT22;11636;52.086;5.090;2024-03-02T11:57:44;12.60;99.90
22940;DHT22;11636;52.086;5.090;2024-03-02T12:00:21;12.80;99.90
22940;DHT22;11636;52.086;5.090;2024-03-02T12:03:07;12.60;99.90
22940;DHT22;11636;52.086;5.090;2024-03-02T12:05:42;12.50;99.90
22940;DHT22;11636;52.086;5.090;2024-03-02T12:08:16;12.30;99.90
22940;DHT22;11636;52.086;5.090;2024-03-02T12:11:00;12.10;99.90
22940;DHT22;11636;52.086;5.090;2024-03-02T12:13:30;12.20;99.90
22940;DHT22;11636;52.086;5.090;2024-03-02T12:16:04;12.70;99.90
22940;DHT22;11636;52.086;5.090;2024-03-02T12:18:31;13.10;99.90
22940;DHT22;11636;52.086;5.090;2024-03-02T12:20:58;13.30;99.90
22940;DHT22;11636;52.086;5.090;2024-03-02T12:23:32;13.40;99.90
22940;DHT22;11636;52.086;5.090;2024-03-02T12:25:59;13.60;99.90
22940;DHT22;11636;52.086;5.090;2024-03-02T12:28:26;13.60;99.90
22940;DHT22;11636;52.086;5.090;2024-03-02T12:31:00;13.70;99.90
22940;DHT22;11636;52.086;5.090;2024-03-02T12:33:34;13.80;99.90
22940;DHT22;11636;52.086;5.090;2024-03-02T12:36:01;13.80;99.90
22940;DHT22;11636;52.086;5.090;2024-03-02T12:38:35;13.90;99.90
22940;DHT22;11636;52.086;5.090;2024-03-02T12:41:03;14.00;99.90
22940;DHT22;11636;52.086;5.090;2024-03-02T12:43:38;14.00;99.90
22940;DHT22;11636;52.086;5.090;2024-03-02T12:46:12;14.10;99.90
22940;DHT22;11636;52.086;5.090;2024-03-02T12:48:39;14.20;99.90
22940;DHT22;11636;52.086;5.090;2024-03-02T12:51:20;14.30;99.90
22940;DHT22;11636;52.086;5.090;2024-03-02T12:53:55;14.50;99.90
22940;DHT22;11636;52.086;5.090;2024-03-02T12:56:30;14.70;99.90
22940;DHT22;11636;52.086;5.090;2024-03-02T12:58:57;14.80;99.90
22940;DHT22;11636;52.086;5.090;2024-03-02T13:01:31;14.90;99.90
22940;DHT22;11636;52.086;5.090;2024-03-02T13:03:59;14.80;99.90
22940;DHT22;11636;52.086;5.090;2024-03-02T13:06:33;14.90;99.90
22940;DHT22;11636;52.086;5.090;2024-03-02T13:09:07;14.90;99.90
22940;DHT22;11636;52.086;5.090;2024-03-02T13:11:43;15.10;99.90
22940;DHT22;11636;52.086;5.090;2024-03-02T13:14:17;15.20;99.90
22940;DHT22;11636;52.086;5.090;2024-03-02T13:16:50;15.30;99.90
22940;DHT22;11636;52.086;5.090;2024-03-02T13:19:26;15.30;99.90
22940;DHT22;11636;52.086;5.090;2024-03-02T13:21:55;15.40;99.90
22940;DHT22;11636;52.086;5.090;2024-03-02T13:24:22;15.50;99.90
22940;DHT22;11636;52.086;5.090;2024-03-02T13:26:59;15.60;99.90
22940;DHT22;11636;52.086;5.090;2024-03-02T13:29:33;15.60;99.90
22940;DHT22;11636;52.086;5.090;2024-03-02T13:32:00;15.50;99.90
22940;DHT22;11636;52.086;5.090;2024-03-02T13:34:34;15.40;99.90
22940;DHT22;11636;52.086;5.090;2024-03-02T13:37:00;15.00;99.90
22940;DHT22;11636;52.086;5.090;2024-03-02T13:39:35;14.70;99.90
22940;DHT22;11636;52.086;5.090;2024-03-02T13:42:11;14.50;99.90
22940;DHT22;11636;52.086;5.090;2024-03-02T13:44:47;14.30;99.90
22940;DHT22;11636;52.086;5.090;2024-03-02T13:47:17;14.30;99.90
22940;DHT22;11636;52.086;5.090;2024-03-02T13:49:50;14.20;99.90
22940;DHT22;11636;52.086;5.090;2024-03-02T13:52:16;14.20;99.90
22940;DHT22;11636;52.086;5.090;2024-03-02T13:54:50;14.30;99.90
22940;DHT22;11636;52.086;5.090;2024-03-02T13:57:19;14.30;99.90
22940;DHT22;11636;52.086;5.090;2024-03-02T13:59:53;14.30;99.90
22940;DHT22;11636;52.086;5.090;2024-03-02T14:02:21;14.30;99.90
22940;DHT22;11636;52.086;5.090;2024-03-02T14:04:54;14.20;99.90
22940;DHT22;11636;52.086;5.090;2024-03-02T14:07:21;14.20;99.90
22940;DHT22;11636;52.086;5.090;2024-03-02T14:09:54;14.20;99.90
22940;DHT22;11636;52.086;5.090;2024-03-02T14:12:27;14.20;99.90
22940;DHT22;11636;52.086;5.090;2024-03-02T14:14:54;14.30;99.90
22940;DHT22;11636;52.086;5.090;2024-03-02T14:17:31;14.30;99.90
22940;DHT22;11636;52.086;5.090;2024-03-02T14:20:01;14.30;99.90
22940;DHT22;11636;52.086;5.090;2024-03-02T14:22:28;14.40;99.90
22940;DHT22;11636;52.086;5.090;2024-03-02T14:25:01;14.40;99.90
22940;DHT22;11636;52.086;5.090;2024-03-02T14:27:28;14.40;99.90
22940;DHT22;11636;52.086;5.090;2024-03-02T14:30:22;14.40;99.90
22940;DHT22;11636;52.086;5.090;2024-03-02T14:32:49;14.40;99.90
22940;DHT22;11636;52.086;5.090;2024-03-02T14:35:22;14.40;99.90
22940;DHT22;11636;52.086;5.090;2024-03-02T14:37:56;14.60;99.90
22940;DHT22;11636;52.086;5.090;2024-03-02T14:40:24;14.80;99.90
22940;DHT22;11636;52.086;5.090;2024-03-02T14:43:00;14.90;99.90
22940;DHT22;11636;52.086;5.090;2024-03-02T14:45:33;14.80;99.90
22940;DHT22;11636;52.086;5.090;2024-03-02T14:48:00;14.60;99.90
22940;DHT22;11636;52.086;5.090;2024-03-02T14:50:33;14.40;99.90
22940;DHT22;11636;52.086;5.090;2024-03-02T14:53:07;14.20;99.90
22940;DHT22;11636;52.086;5.090;2024-03-02T14:55:34;14.10;99.90
22940;DHT22;11636;52.086;5.090;2024-03-02T14:58:08;13.90;99.90
22940;DHT22;11636;52.086;5.090;2024-03-02T15:00:35;13.70;99.90
22940;DHT22;11636;52.086;5.090;2024-03-02T15:03:08;13.50;99.90
22940;DHT22;11636;52.086;5.090;2024-03-02T15:05:35;13.40;99.90
22940;DHT22;11636;52.086;5.090;2024-03-02T15:08:02;13.30;99.90
22940;DHT22;11636;52.086;5.090;2024-03-02T15:10:38;13.20;99.90
22940;DHT22;11636;52.086;5.090;2024-03-02T15:13:06;13.10;99.90
22940;DHT22;11636;52.086;5.090;2024-03-02T15:15:41;12.90;99.90
22940;DHT22;11636;52.086;5.090;2024-03-02T15:18:07;12.80;99.90
22940;DHT22;11636;52.086;5.090;2024-03-02T15:20:35;12.70;99.90
22940;DHT22;11636;52.086;5.090;2024-03-02T15:23:09;12.80;99.90
22940;DHT22;11636;52.086;5.090;2024-03-02T15:25:42;12.80;99.90
22940;DHT22;11636;52.086;5.090;2024-03-02T15:28:09;12.70;99.90
22940;DHT22;11636;52.086;5.090;2024-03-02T15:30:42;12.60;99.90
22940;DHT22;11636;52.086;5.090;2024-03-02T15:33:09;12.50;99.90
22940;DHT22;11636;52.086;5.090;2024-03-02T15:35:42;12.40;99.90
22940;DHT22;11636;52.086;5.090;2024-03-02T15:38:08;12.30;99.90
22940;DHT22;11636;52.086;5.090;2024-03-02T15:40:54;12.30;99.90
22940;DHT22;11636;52.086;5.090;2024-03-02T15:43:27;12.30;99.90
22940;DHT22;11636;52.086;5.090;2024-03-02T15:46:00;12.30;99.90
22940;DHT22;11636;52.086;5.090;2024-03-02T15:48:27;12.30;99.90
22940;DHT22;11636;52.086;5.090;2024-03-02T15:50:54;12.30;99.90
22940;DHT22;11636;52.086;5.090;2024-03-02T15:53:31;12.30;99.90
22940;DHT22;11636;52.086;5.090;2024-03-02T15:55:58;12.20;99.90
22940;DHT22;11636;52.086;5.090;2024-03-02T15:58:35;12.20;99.90
22940;DHT22;11636;52.086;5.090;2024-03-02T16:01:03;12.20;99.90
22940;DHT22;11636;52.086;5.090;2024-03-02T16:03:37;12.10;99.90
22940;DHT22;11636;52.086;5.090;2024-03-02T16:06:04;12.00;99.90
22940;DHT22;11636;52.086;5.090;2024-03-02T16:08:38;11.90;99.90
22940;DHT22;11636;52.086;5.090;2024-03-02T16:11:05;11.90;99.90